Weather at Johns Island Airstrip [CLOSED]

Public forecast

Using degrees Fahrenheit for public forecast. Weather courtesy of forecast.io.

Closest aviation weather report (METAR) to Johns Island Airstrip

Closest report is Orcas Island Airport, 9.9 nm (18.4 km) ENE.

2024/05/20 05:35 (retrieved 22 minutes ago)

KORS 200535Z AUTO 00000KT 10SM CLR 11/06 A3022 RMK AO2

Closest aviation forecast (TAF) to Johns Island Airstrip

Forecast is more than 6 hours old.

Closest forecast is Victoria Harbour Seaplane Base, 17.0 nm (31.5 km) SSW.

2024/05/19 21:00 (retrieved 9 hours ago)

TAF CYWH 192046Z 1921/2004 19005KT P6SM SCT030 RMK NXT FCST BY 201400Z